sensor_id;sensor_type;location;lat;lon;timestamp;temperature;humidity
30520;DHT22;17300;50.374;8.006;2024-03-25T00:00:24;11.80;46.20
30520;DHT22;17300;50.374;8.006;2024-03-25T00:02:53;11.80;45.60
30520;DHT22;17300;50.374;8.006;2024-03-25T00:05:19;11.80;45.60
30520;DHT22;17300;50.374;8.006;2024-03-25T00:07:48;11.80;45.60
30520;DHT22;17300;50.374;8.006;2024-03-25T00:10:13;11.80;45.70
30520;DHT22;17300;50.374;8.006;2024-03-25T00:12:40;11.80;45.70
30520;DHT22;17300;50.374;8.006;2024-03-25T00:15:06;11.80;45.70
30520;DHT22;17300;50.374;8.006;2024-03-25T00:17:34;11.80;45.70
30520;DHT22;17300;50.374;8.006;2024-03-25T00:20:01;11.80;45.60
30520;DHT22;17300;50.374;8.006;2024-03-25T00:22:31;11.80;45.60
30520;DHT22;17300;50.374;8.006;2024-03-25T00:24:57;11.80;45.60
30520;DHT22;17300;50.374;8.006;2024-03-25T00:27:23;11.80;45.60
30520;DHT22;17300;50.374;8.006;2024-03-25T00:29:49;11.80;45.60
30520;DHT22;17300;50.374;8.006;2024-03-25T00:32:16;11.80;45.60
30520;DHT22;17300;50.374;8.006;2024-03-25T00:34:41;11.80;45.60
30520;DHT22;17300;50.374;8.006;2024-03-25T00:37:09;11.80;45.70
30520;DHT22;17300;50.374;8.006;2024-03-25T00:39:35;11.70;45.60
30520;DHT22;17300;50.374;8.006;2024-03-25T00:42:02;11.70;45.60
30520;DHT22;17300;50.374;8.006;2024-03-25T00:44:28;11.80;45.70
30520;DHT22;17300;50.374;8.006;2024-03-25T00:46:55;11.70;45.70
30520;DHT22;17300;50.374;8.006;2024-03-25T00:49:21;11.80;45.90
30520;DHT22;17300;50.374;8.006;2024-03-25T00:51:48;11.70;45.80
30520;DHT22;17300;50.374;8.006;2024-03-25T00:54:14;11.70;45.70
30520;DHT22;17300;50.374;8.006;2024-03-25T00:56:41;11.70;45.70
30520;DHT22;17300;50.374;8.006;2024-03-25T00:59:07;11.70;45.70
30520;DHT22;17300;50.374;8.006;2024-03-25T01:01:34;11.70;45.80
30520;DHT22;17300;50.374;8.006;2024-03-25T01:04:01;11.70;45.90
30520;DHT22;17300;50.374;8.006;2024-03-25T01:06:28;11.70;45.90
30520;DHT22;17300;50.374;8.006;2024-03-25T01:08:53;11.70;45.90
30520;DHT22;17300;50.374;8.006;2024-03-25T01:11:21;11.70;45.90
30520;DHT22;17300;50.374;8.006;2024-03-25T01:13:47;11.70;45.90
30520;DHT22;17300;50.374;8.006;2024-03-25T01:16:14;11.60;45.80
30520;DHT22;17300;50.374;8.006;2024-03-25T01:18:40;11.60;45.80
30520;DHT22;17300;50.374;8.006;2024-03-25T01:21:06;11.60;45.80
30520;DHT22;17300;50.374;8.006;2024-03-25T01:23:32;11.60;45.90
30520;DHT22;17300;50.374;8.006;2024-03-25T01:25:59;11.60;45.90
30520;DHT22;17300;50.374;8.006;2024-03-25T01:28:26;11.60;45.90
30520;DHT22;17300;50.374;8.006;2024-03-25T01:30:52;11.50;45.90
30520;DHT22;17300;50.374;8.006;2024-03-25T01:33:19;11.50;45.90
30520;DHT22;17300;50.374;8.006;2024-03-25T01:35:46;11.50;45.90
30520;DHT22;17300;50.374;8.006;2024-03-25T01:38:11;11.50;46.00
30520;DHT22;17300;50.374;8.006;2024-03-25T01:40:38;11.50;45.90
30520;DHT22;17300;50.374;8.006;2024-03-25T01:43:04;11.50;46.00
30520;DHT22;17300;50.374;8.006;2024-03-25T01:45:33;11.50;46.00
30520;DHT22;17300;50.374;8.006;2024-03-25T01:48:03;11.50;46.00
30520;DHT22;17300;50.374;8.006;2024-03-25T01:50:34;11.50;46.00
30520;DHT22;17300;50.374;8.006;2024-03-25T01:53:01;11.50;46.00
30520;DHT22;17300;50.374;8.006;2024-03-25T01:55:29;11.50;46.00
30520;DHT22;17300;50.374;8.006;2024-03-25T01:57:56;11.50;46.00
30520;DHT22;17300;50.374;8.006;2024-03-25T02:00:24;11.50;46.00
30520;DHT22;17300;50.374;8.006;2024-03-25T02:02:52;11.50;46.00
30520;DHT22;17300;50.374;8.006;2024-03-25T02:05:20;11.40;45.90
30520;DHT22;17300;50.374;8.006;2024-03-25T02:07:46;11.40;45.90
30520;DHT22;17300;50.374;8.006;2024-03-25T02:10:13;11.40;45.90
30520;DHT22;17300;50.374;8.006;2024-03-25T02:12:40;11.40;45.90
30520;DHT22;17300;50.374;8.006;2024-03-25T02:15:08;11.40;46.00
30520;DHT22;17300;50.374;8.006;2024-03-25T02:17:34;11.40;46.00
30520;DHT22;17300;50.374;8.006;2024-03-25T02:20:02;11.40;46.00
30520;DHT22;17300;50.374;8.006;2024-03-25T02:22:28;11.30;45.90
30520;DHT22;17300;50.374;8.006;2024-03-25T02:24:57;11.30;45.90
30520;DHT22;17300;50.374;8.006;2024-03-25T02:27:24;11.30;46.00
30520;DHT22;17300;50.374;8.006;2024-03-25T02:29:51;11.30;46.10
30520;DHT22;17300;50.374;8.006;2024-03-25T02:32:16;11.30;46.20
30520;DHT22;17300;50.374;8.006;2024-03-25T02:34:45;11.30;46.20
30520;DHT22;17300;50.374;8.006;2024-03-25T02:37:12;11.30;46.30
30520;DHT22;17300;50.374;8.006;2024-03-25T02:39:38;11.30;46.30
30520;DHT22;17300;50.374;8.006;2024-03-25T02:42:04;11.30;46.40
30520;DHT22;17300;50.374;8.006;2024-03-25T02:44:33;11.30;46.40
30520;DHT22;17300;50.374;8.006;2024-03-25T02:46:59;11.30;46.50
30520;DHT22;17300;50.374;8.006;2024-03-25T02:49:26;11.30;46.50
30520;DHT22;17300;50.374;8.006;2024-03-25T02:51:51;11.30;46.50
30520;DHT22;17300;50.374;8.006;2024-03-25T02:54:18;11.30;46.50
30520;DHT22;17300;50.374;8.006;2024-03-25T02:56:44;11.20;46.40
30520;DHT22;17300;50.374;8.006;2024-03-25T02:59:11;11.20;46.40
30520;DHT22;17300;50.374;8.006;2024-03-25T03:01:38;11.20;46.50
30520;DHT22;17300;50.374;8.006;2024-03-25T03:04:05;11.20;46.50
30520;DHT22;17300;50.374;8.006;2024-03-25T03:06:30;11.20;46.50
30520;DHT22;17300;50.374;8.006;2024-03-25T03:08:57;11.20;46.60
30520;DHT22;17300;50.374;8.006;2024-03-25T03:11:23;11.20;46.70
30520;DHT22;17300;50.374;8.006;2024-03-25T03:13:49;11.20;46.60
30520;DHT22;17300;50.374;8.006;2024-03-25T03:16:15;11.20;46.60
30520;DHT22;17300;50.374;8.006;2024-03-25T03:18:43;11.20;46.60
30520;DHT22;17300;50.374;8.006;2024-03-25T03:21:10;11.20;46.60
30520;DHT22;17300;50.374;8.006;2024-03-25T03:23:35;11.20;46.60
30520;DHT22;17300;50.374;8.006;2024-03-25T03:26:02;11.10;46.60
30520;DHT22;17300;50.374;8.006;2024-03-25T03:28:28;11.10;46.60
30520;DHT22;17300;50.374;8.006;2024-03-25T03:30:54;11.10;46.60
30520;DHT22;17300;50.374;8.006;2024-03-25T03:33:20;11.10;46.60
30520;DHT22;17300;50.374;8.006;2024-03-25T03:35:49;11.10;46.60
30520;DHT22;17300;50.374;8.006;2024-03-25T03:38:15;11.10;46.70
30520;DHT22;17300;50.374;8.006;2024-03-25T03:40:41;11.10;46.60
30520;DHT22;17300;50.374;8.006;2024-03-25T03:43:07;11.10;46.60
30520;DHT22;17300;50.374;8.006;2024-03-25T03:45:34;11.00;46.50
30520;DHT22;17300;50.374;8.006;2024-03-25T03:48:00;11.00;46.50
30520;DHT22;17300;50.374;8.006;2024-03-25T03:50:26;11.00;46.40
30520;DHT22;17300;50.374;8.006;2024-03-25T03:52:53;11.00;46.50
30520;DHT22;17300;50.374;8.006;2024-03-25T03:55:20;11.00;46.50
30520;DHT22;17300;50.374;8.006;2024-03-25T03:57:46;11.00;46.50
30520;DHT22;17300;50.374;8.006;2024-03-25T04:00:14;11.00;46.60
30520;DHT22;17300;50.374;8.006;2024-03-25T04:02:40;10.90;46.60
30520;DHT22;17300;50.374;8.006;2024-03-25T04:05:07;11.00;46.70
30520;DHT22;17300;50.374;8.006;2024-03-25T04:07:33;11.00;46.70
30520;DHT22;17300;50.374;8.006;2024-03-25T04:10:00;10.90;46.70
30520;DHT22;17300;50.374;8.006;2024-03-25T04:12:26;11.00;46.90
30520;DHT22;17300;50.374;8.006;2024-03-25T04:14:53;11.00;46.90
30520;DHT22;17300;50.374;8.006;2024-03-25T04:17:20;10.90;46.80
30520;DHT22;17300;50.374;8.006;2024-03-25T04:19:47;11.00;46.90
30520;DHT22;17300;50.374;8.006;2024-03-25T04:22:13;11.00;46.80
30520;DHT22;17300;50.374;8.006;2024-03-25T04:24:40;11.00;46.70
30520;DHT22;17300;50.374;8.006;2024-03-25T04:27:07;11.00;46.60
30520;DHT22;17300;50.374;8.006;2024-03-25T04:29:33;10.90;46.30
30520;DHT22;17300;50.374;8.006;2024-03-25T04:31:59;10.90;46.30
30520;DHT22;17300;50.374;8.006;2024-03-25T04:34:26;10.80;46.10
30520;DHT22;17300;50.374;8.006;2024-03-25T04:36:52;10.80;46.70
30520;DHT22;17300;50.374;8.006;2024-03-25T04:39:18;10.80;46.10
30520;DHT22;17300;50.374;8.006;2024-03-25T04:41:44;10.70;46.00
30520;DHT22;17300;50.374;8.006;2024-03-25T04:44:11;10.70;46.10
30520;DHT22;17300;50.374;8.006;2024-03-25T04:46:37;10.70;46.10
30520;DHT22;17300;50.374;8.006;2024-03-25T04:49:03;10.60;46.10
30520;DHT22;17300;50.374;8.006;2024-03-25T04:51:29;10.60;46.20
30520;DHT22;17300;50.374;8.006;2024-03-25T04:53:54;10.60;46.20
30520;DHT22;17300;50.374;8.006;2024-03-25T04:56:20;10.50;46.20
30520;DHT22;17300;50.374;8.006;2024-03-25T04:58:46;10.50;46.20
30520;DHT22;17300;50.374;8.006;2024-03-25T05:01:13;10.40;46.20
30520;DHT22;17300;50.374;8.006;2024-03-25T05:03:39;10.40;46.40
30520;DHT22;17300;50.374;8.006;2024-03-25T05:06:05;10.40;46.50
30520;DHT22;17300;50.374;8.006;2024-03-25T05:08:32;10.40;46.50
30520;DHT22;17300;50.374;8.006;2024-03-25T05:10:58;10.40;46.50
30520;DHT22;17300;50.374;8.006;2024-03-25T05:13:23;10.40;46.60
30520;DHT22;17300;50.374;8.006;2024-03-25T05:15:50;10.40;46.50
30520;DHT22;17300;50.374;8.006;2024-03-25T05:18:17;10.40;46.60
30520;DHT22;17300;50.374;8.006;2024-03-25T05:20:43;10.30;46.50
30520;DHT22;17300;50.374;8.006;2024-03-25T05:23:09;10.30;46.50
30520;DHT22;17300;50.374;8.006;2024-03-25T05:25:35;10.30;46.60
30520;DHT22;17300;50.374;8.006;2024-03-25T05:28:01;10.30;46.60
30520;DHT22;17300;50.374;8.006;2024-03-25T05:30:26;10.30;46.60
30520;DHT22;17300;50.374;8.006;2024-03-25T05:32:52;10.30;46.60
30520;DHT22;17300;50.374;8.006;2024-03-25T05:35:19;10.30;46.60
30520;DHT22;17300;50.374;8.006;2024-03-25T05:37:45;10.30;46.60
30520;DHT22;17300;50.374;8.006;2024-03-25T05:40:12;10.30;46.60
30520;DHT22;17300;50.374;8.006;2024-03-25T05:42:37;10.30;46.40
30520;DHT22;17300;50.374;8.006;2024-03-25T05:45:04;10.30;46.40
30520;DHT22;17300;50.374;8.006;2024-03-25T05:47:30;10.30;46.40
30520;DHT22;17300;50.374;8.006;2024-03-25T05:49:55;10.30;46.40
30520;DHT22;17300;50.374;8.006;2024-03-25T05:52:23;10.30;46.50
30520;DHT22;17300;50.374;8.006;2024-03-25T05:54:48;10.20;46.50
30520;DHT22;17300;50.374;8.006;2024-03-25T05:57:14;10.20;46.50
30520;DHT22;17300;50.374;8.006;2024-03-25T05:59:40;10.20;46.60
30520;DHT22;17300;50.374;8.006;2024-03-25T06:02:06;10.20;46.50
30520;DHT22;17300;50.374;8.006;2024-03-25T06:04:31;10.20;46.50
30520;DHT22;17300;50.374;8.006;2024-03-25T06:06:57;10.10;46.40
30520;DHT22;17300;50.374;8.006;2024-03-25T06:09:24;10.10;46.40
30520;DHT22;17300;50.374;8.006;2024-03-25T06:11:50;10.10;46.40
30520;DHT22;17300;50.374;8.006;2024-03-25T06:14:16;10.10;46.40
30520;DHT22;17300;50.374;8.006;2024-03-25T06:16:42;10.10;46.40
30520;DHT22;17300;50.374;8.006;2024-03-25T06:19:07;10.10;46.50
30520;DHT22;17300;50.374;8.006;2024-03-25T06:21:33;10.10;46.40
30520;DHT22;17300;50.374;8.006;2024-03-25T06:23:59;10.10;46.60
30520;DHT22;17300;50.374;8.006;2024-03-25T06:26:26;10.10;46.60
30520;DHT22;17300;50.374;8.006;2024-03-25T06:28:52;10.10;46.60
30520;DHT22;17300;50.374;8.006;2024-03-25T06:31:18;10.10;46.60
30520;DHT22;17300;50.374;8.006;2024-03-25T06:34:02;10.10;46.70
30520;DHT22;17300;50.374;8.006;2024-03-25T06:36:39;10.10;46.70
30520;DHT22;17300;50.374;8.006;2024-03-25T06:39:05;10.10;46.80
30520;DHT22;17300;50.374;8.006;2024-03-25T06:41:33;10.10;46.90
30520;DHT22;17300;50.374;8.006;2024-03-25T06:43:58;10.10;47.00
30520;DHT22;17300;50.374;8.006;2024-03-25T06:46:24;10.10;47.00
30520;DHT22;17300;50.374;8.006;2024-03-25T06:48:50;10.10;47.00
30520;DHT22;17300;50.374;8.006;2024-03-25T06:51:16;10.10;47.00
30520;DHT22;17300;50.374;8.006;2024-03-25T06:53:42;10.10;47.10
30520;DHT22;17300;50.374;8.006;2024-03-25T06:56:08;10.10;47.10
30520;DHT22;17300;50.374;8.006;2024-03-25T06:58:36;10.10;47.20
30520;DHT22;17300;50.374;8.006;2024-03-25T07:01:04;10.20;47.30
30520;DHT22;17300;50.374;8.006;2024-03-25T07:03:30;10.20;47.40
30520;DHT22;17300;50.374;8.006;2024-03-25T07:05:56;10.30;47.50
30520;DHT22;17300;50.374;8.006;2024-03-25T07:08:22;10.30;47.50
30520;DHT22;17300;50.374;8.006;2024-03-25T07:10:48;10.30;47.50
30520;DHT22;17300;50.374;8.006;2024-03-25T07:13:14;10.40;47.60
30520;DHT22;17300;50.374;8.006;2024-03-25T07:15:42;10.40;47.70
30520;DHT22;17300;50.374;8.006;2024-03-25T07:18:08;10.50;47.70
30520;DHT22;17300;50.374;8.006;2024-03-25T07:20:35;10.50;47.80
30520;DHT22;17300;50.374;8.006;2024-03-25T07:23:01;10.60;47.80
30520;DHT22;17300;50.374;8.006;2024-03-25T07:25:26;10.60;47.70
30520;DHT22;17300;50.374;8.006;2024-03-25T07:27:52;10.70;47.70
30520;DHT22;17300;50.374;8.006;2024-03-25T07:30:18;10.80;47.70
30520;DHT22;17300;50.374;8.006;2024-03-25T07:32:45;10.80;47.60
30520;DHT22;17300;50.374;8.006;2024-03-25T07:35:11;10.90;48.20
30520;DHT22;17300;50.374;8.006;2024-03-25T07:37:37;10.90;47.40
30520;DHT22;17300;50.374;8.006;2024-03-25T07:40:04;11.00;47.50
30520;DHT22;17300;50.374;8.006;2024-03-25T07:42:30;11.10;47.50
30520;DHT22;17300;50.374;8.006;2024-03-25T07:44:55;11.10;47.50
30520;DHT22;17300;50.374;8.006;2024-03-25T07:47:21;11.20;47.60
30520;DHT22;17300;50.374;8.006;2024-03-25T07:49:49;11.20;47.50
30520;DHT22;17300;50.374;8.006;2024-03-25T07:52:14;11.30;47.60
30520;DHT22;17300;50.374;8.006;2024-03-25T07:54:40;11.40;47.70
30520;DHT22;17300;50.374;8.006;2024-03-25T07:57:06;11.50;47.70
30520;DHT22;17300;50.374;8.006;2024-03-25T07:59:32;11.60;47.70
30520;DHT22;17300;50.374;8.006;2024-03-25T08:01:57;11.60;47.70
30520;DHT22;17300;50.374;8.006;2024-03-25T08:04:23;11.70;47.70
30520;DHT22;17300;50.374;8.006;2024-03-25T08:06:50;11.80;47.80
30520;DHT22;17300;50.374;8.006;2024-03-25T08:09:16;11.90;47.80
30520;DHT22;17300;50.374;8.006;2024-03-25T08:11:42;12.00;47.80
30520;DHT22;17300;50.374;8.006;2024-03-25T08:14:08;12.20;48.00
30520;DHT22;17300;50.374;8.006;2024-03-25T08:16:34;12.30;49.00
30520;DHT22;17300;50.374;8.006;2024-03-25T08:18:59;12.60;48.70
30520;DHT22;17300;50.374;8.006;2024-03-25T08:21:25;12.80;49.40
30520;DHT22;17300;50.374;8.006;2024-03-25T08:23:52;13.10;50.60
30520;DHT22;17300;50.374;8.006;2024-03-25T08:26:18;13.50;51.00
30520;DHT22;17300;50.374;8.006;2024-03-25T08:28:44;13.90;51.60
30520;DHT22;17300;50.374;8.006;2024-03-25T08:31:10;14.30;51.10
30520;DHT22;17300;50.374;8.006;2024-03-25T08:33:35;14.70;51.70
30520;DHT22;17300;50.374;8.006;2024-03-25T08:36:01;15.20;51.30
30520;DHT22;17300;50.374;8.006;2024-03-25T08:38:27;15.70;51.00
30520;DHT22;17300;50.374;8.006;2024-03-25T08:40:54;16.10;49.90
30520;DHT22;17300;50.374;8.006;2024-03-25T08:43:20;16.40;49.20
30520;DHT22;17300;50.374;8.006;2024-03-25T08:45:46;16.80;49.40
30520;DHT22;17300;50.374;8.006;2024-03-25T08:48:12;17.10;48.60
30520;DHT22;17300;50.374;8.006;2024-03-25T08:50:38;17.40;47.30
30520;DHT22;17300;50.374;8.006;2024-03-25T08:53:04;17.50;45.90
30520;DHT22;17300;50.374;8.006;2024-03-25T08:55:30;17.60;45.50
30520;DHT22;17300;50.374;8.006;2024-03-25T08:57:57;17.70;45.00
30520;DHT22;17300;50.374;8.006;2024-03-25T09:00:24;17.70;44.30
30520;DHT22;17300;50.374;8.006;2024-03-25T09:02:50;17.70;43.50
30520;DHT22;17300;50.374;8.006;2024-03-25T09:05:16;17.60;42.70
30520;DHT22;17300;50.374;8.006;2024-03-25T09:07:42;17.40;42.30
30520;DHT22;17300;50.374;8.006;2024-03-25T09:10:08;17.30;42.00
30520;DHT22;17300;50.374;8.006;2024-03-25T09:12:53;17.10;41.90
30520;DHT22;17300;50.374;8.006;2024-03-25T09:15:20;17.00;42.10
30520;DHT22;17300;50.374;8.006;2024-03-25T09:17:46;16.90;42.00
30520;DHT22;17300;50.374;8.006;2024-03-25T09:20:11;16.80;42.10
30520;DHT22;17300;50.374;8.006;2024-03-25T09:22:41;16.70;42.20
30520;DHT22;17300;50.374;8.006;2024-03-25T09:25:07;16.70;42.90
30520;DHT22;17300;50.374;8.006;2024-03-25T09:27:33;16.70;42.80
30520;DHT22;17300;50.374;8.006;2024-03-25T09:29:59;16.70;43.00
30520;DHT22;17300;50.374;8.006;2024-03-25T09:32:26;16.70;42.20
30520;DHT22;17300;50.374;8.006;2024-03-25T09:34:52;16.70;42.50
30520;DHT22;17300;50.374;8.006;2024-03-25T09:37:18;16.80;43.70
30520;DHT22;17300;50.374;8.006;2024-03-25T09:39:43;17.00;44.90
30520;DHT22;17300;50.374;8.006;2024-03-25T09:42:14;17.30;45.90
30520;DHT22;17300;50.374;8.006;2024-03-25T09:44:40;17.70;46.20
30520;DHT22;17300;50.374;8.006;2024-03-25T09:47:06;18.10;46.40
30520;DHT22;17300;50.374;8.006;2024-03-25T09:49:35;18.50;45.60
30520;DHT22;17300;50.374;8.006;2024-03-25T09:52:01;18.80;44.50
30520;DHT22;17300;50.374;8.006;2024-03-25T09:54:27;19.10;44.40
30520;DHT22;17300;50.374;8.006;2024-03-25T09:56:53;19.30;43.60
30520;DHT22;17300;50.374;8.006;2024-03-25T09:59:19;19.60;43.40
30520;DHT22;17300;50.374;8.006;2024-03-25T10:01:45;19.80;43.20
30520;DHT22;17300;50.374;8.006;2024-03-25T10:04:11;20.00;43.10
30520;DHT22;17300;50.374;8.006;2024-03-25T10:06:39;20.20;43.20
30520;DHT22;17300;50.374;8.006;2024-03-25T10:09:05;20.50;43.10
30520;DHT22;17300;50.374;8.006;2024-03-25T10:11:31;20.90;43.90
30520;DHT22;17300;50.374;8.006;2024-03-25T10:13:57;21.30;44.60
30520;DHT22;17300;50.374;8.006;2024-03-25T10:16:23;21.80;43.90
30520;DHT22;17300;50.374;8.006;2024-03-25T10:18:49;22.20;44.00
30520;DHT22;17300;50.374;8.006;2024-03-25T10:21:19;22.70;43.70
30520;DHT22;17300;50.374;8.006;2024-03-25T10:23:46;23.30;42.80
30520;DHT22;17300;50.374;8.006;2024-03-25T10:26:25;23.80;43.10
30520;DHT22;17300;50.374;8.006;2024-03-25T10:28:59;24.30;41.20
30520;DHT22;17300;50.374;8.006;2024-03-25T10:31:25;24.70;40.30
30520;DHT22;17300;50.374;8.006;2024-03-25T10:33:50;25.00;40.50
30520;DHT22;17300;50.374;8.006;2024-03-25T10:36:17;25.30;39.60
30520;DHT22;17300;50.374;8.006;2024-03-25T10:38:44;25.50;38.90
30520;DHT22;17300;50.374;8.006;2024-03-25T10:41:13;25.70;38.30
30520;DHT22;17300;50.374;8.006;2024-03-25T10:43:42;26.00;37.70
30520;DHT22;17300;50.374;8.006;2024-03-25T10:46:09;26.10;37.80
30520;DHT22;17300;50.374;8.006;2024-03-25T10:48:37;26.30;37.20
30520;DHT22;17300;50.374;8.006;2024-03-25T10:51:06;26.40;36.30
30520;DHT22;17300;50.374;8.006;2024-03-25T10:53:32;26.60;35.90
30520;DHT22;17300;50.374;8.006;2024-03-25T10:56:01;26.60;35.40
30520;DHT22;17300;50.374;8.006;2024-03-25T10:58:28;26.70;34.90
30520;DHT22;17300;50.374;8.006;2024-03-25T11:00:55;26.80;34.50
30520;DHT22;17300;50.374;8.006;2024-03-25T11:03:21;26.80;34.40
30520;DHT22;17300;50.374;8.006;2024-03-25T11:05:48;26.80;33.90
30520;DHT22;17300;50.374;8.006;2024-03-25T11:08:14;26.80;34.00
30520;DHT22;17300;50.374;8.006;2024-03-25T11:10:41;26.90;34.20
30520;DHT22;17300;50.374;8.006;2024-03-25T11:13:10;27.00;35.00
30520;DHT22;17300;50.374;8.006;2024-03-25T11:15:40;27.20;33.50
30520;DHT22;17300;50.374;8.006;2024-03-25T11:18:11;27.30;32.90
30520;DHT22;17300;50.374;8.006;2024-03-25T11:20:37;27.30;32.00
30520;DHT22;17300;50.374;8.006;2024-03-25T11:23:09;27.30;32.00
30520;DHT22;17300;50.374;8.006;2024-03-25T11:25:35;27.20;30.60
30520;DHT22;17300;50.374;8.006;2024-03-25T11:28:01;27.20;31.30
30520;DHT22;17300;50.374;8.006;2024-03-25T11:30:27;27.10;31.30
30520;DHT22;17300;50.374;8.006;2024-03-25T11:32:54;27.10;31.00
30520;DHT22;17300;50.374;8.006;2024-03-25T11:35:21;27.10;30.40
30520;DHT22;17300;50.374;8.006;2024-03-25T11:37:47;27.10;30.70
30520;DHT22;17300;50.374;8.006;2024-03-25T11:40:14;27.10;30.20
30520;DHT22;17300;50.374;8.006;2024-03-25T11:42:40;27.10;29.90
30520;DHT22;17300;50.374;8.006;2024-03-25T11:45:07;27.00;29.80
30520;DHT22;17300;50.374;8.006;2024-03-25T11:47:33;26.90;30.00
30520;DHT22;17300;50.374;8.006;2024-03-25T11:50:07;26.90;29.90
30520;DHT22;17300;50.374;8.006;2024-03-25T11:52:33;26.80;29.40
30520;DHT22;17300;50.374;8.006;2024-03-25T11:54:59;26.80;29.90
30520;DHT22;17300;50.374;8.006;2024-03-25T11:57:25;26.90;29.90
30520;DHT22;17300;50.374;8.006;2024-03-25T11:59:51;26.90;29.80
30520;DHT22;17300;50.374;8.006;2024-03-25T12:02:16;27.00;29.60
30520;DHT22;17300;50.374;8.006;2024-03-25T12:04:43;27.10;29.90
30520;DHT22;17300;50.374;8.006;2024-03-25T12:07:12;27.30;30.00
30520;DHT22;17300;50.374;8.006;2024-03-25T12:09:38;27.50;29.70
30520;DHT22;17300;50.374;8.006;2024-03-25T12:12:22;27.80;29.80
30520;DHT22;17300;50.374;8.006;2024-03-25T12:14:48;28.00;29.40
30520;DHT22;17300;50.374;8.006;2024-03-25T12:17:14;28.10;29.10
30520;DHT22;17300;50.374;8.006;2024-03-25T12:19:40;28.30;29.10
30520;DHT22;17300;50.374;8.006;2024-03-25T12:22:06;28.50;29.00
30520;DHT22;17300;50.374;8.006;2024-03-25T12:24:34;28.60;28.80
30520;DHT22;17300;50.374;8.006;2024-03-25T12:27:00;28.70;28.60
30520;DHT22;17300;50.374;8.006;2024-03-25T12:29:26;28.80;28.50
30520;DHT22;17300;50.374;8.006;2024-03-25T12:31:55;28.90;28.30
30520;DHT22;17300;50.374;8.006;2024-03-25T12:34:21;29.10;27.90
30520;DHT22;17300;50.374;8.006;2024-03-25T12:36:48;29.20;28.10
30520;DHT22;17300;50.374;8.006;2024-03-25T12:39:17;29.30;27.90
30520;DHT22;17300;50.374;8.006;2024-03-25T12:41:44;29.50;27.70
30520;DHT22;17300;50.374;8.006;2024-03-25T12:44:12;29.70;28.10
30520;DHT22;17300;50.374;8.006;2024-03-25T12:46:38;30.10;28.40
30520;DHT22;17300;50.374;8.006;2024-03-25T12:49:04;30.40;28.60
30520;DHT22;17300;50.374;8.006;2024-03-25T12:51:30;30.90;28.60
30520;DHT22;17300;50.374;8.006;2024-03-25T12:53:56;31.30;28.30
30520;DHT22;17300;50.374;8.006;2024-03-25T12:56:22;31.70;27.70
30520;DHT22;17300;50.374;8.006;2024-03-25T12:58:49;32.00;27.30
30520;DHT22;17300;50.374;8.006;2024-03-25T13:01:15;32.30;26.90
30520;DHT22;17300;50.374;8.006;2024-03-25T13:03:41;32.50;26.80
30520;DHT22;17300;50.374;8.006;2024-03-25T13:06:07;32.70;26.60
30520;DHT22;17300;50.374;8.006;2024-03-25T13:08:33;32.90;26.60
30520;DHT22;17300;50.374;8.006;2024-03-25T13:10:59;33.00;26.50
30520;DHT22;17300;50.374;8.006;2024-03-25T13:13:25;33.30;26.40
30520;DHT22;17300;50.374;8.006;2024-03-25T13:15:52;33.50;26.40
30520;DHT22;17300;50.374;8.006;2024-03-25T13:18:18;33.60;26.00
30520;DHT22;17300;50.374;8.006;2024-03-25T13:20:44;33.80;25.90
30520;DHT22;17300;50.374;8.006;2024-03-25T13:23:10;34.00;25.70
30520;DHT22;17300;50.374;8.006;2024-03-25T13:25:36;34.10;25.50
30520;DHT22;17300;50.374;8.006;2024-03-25T13:28:02;34.20;25.40
30520;DHT22;17300;50.374;8.006;2024-03-25T13:30:30;34.40;25.20
30520;DHT22;17300;50.374;8.006;2024-03-25T13:32:58;34.50;25.00
30520;DHT22;17300;50.374;8.006;2024-03-25T13:35:24;34.60;24.60
30520;DHT22;17300;50.374;8.006;2024-03-25T13:37:50;34.70;24.50
30520;DHT22;17300;50.374;8.006;2024-03-25T13:40:15;34.80;24.40
30520;DHT22;17300;50.374;8.006;2024-03-25T13:42:41;34.90;24.30
30520;DHT22;17300;50.374;8.006;2024-03-25T13:45:07;35.00;24.20
30520;DHT22;17300;50.374;8.006;2024-03-25T13:47:33;35.10;23.90
30520;DHT22;17300;50.374;8.006;2024-03-25T13:50:05;35.20;23.50
30520;DHT22;17300;50.374;8.006;2024-03-25T13:52:31;35.30;22.90
30520;DHT22;17300;50.374;8.006;2024-03-25T13:54:57;35.40;23.30
30520;DHT22;17300;50.374;8.006;2024-03-25T13:57:23;35.50;23.30
30520;DHT22;17300;50.374;8.006;2024-03-25T13:59:50;35.60;23.20
30520;DHT22;17300;50.374;8.006;2024-03-25T14:02:16;35.70;23.00
30520;DHT22;17300;50.374;8.006;2024-03-25T14:04:41;35.90;22.90
30520;DHT22;17300;50.374;8.006;2024-03-25T14:07:09;36.00;22.80
30520;DHT22;17300;50.374;8.006;2024-03-25T14:09:34;36.10;22.50
30520;DHT22;17300;50.374;8.006;2024-03-25T14:12:00;36.30;22.60
30520;DHT22;17300;50.374;8.006;2024-03-25T14:14:26;36.40;22.70
30520;DHT22;17300;50.374;8.006;2024-03-25T14:16:52;36.60;22.70
30520;DHT22;17300;50.374;8.006;2024-03-25T14:19:18;36.80;22.40
30520;DHT22;17300;50.374;8.006;2024-03-25T14:21:43;37.00;22.30
30520;DHT22;17300;50.374;8.006;2024-03-25T14:24:10;37.20;22.20
30520;DHT22;17300;50.374;8.006;2024-03-25T14:26:36;37.40;22.00
30520;DHT22;17300;50.374;8.006;2024-03-25T14:29:02;37.50;21.80
30520;DHT22;17300;50.374;8.006;2024-03-25T14:31:28;37.60;21.70
30520;DHT22;17300;50.374;8.006;2024-03-25T14:33:54;37.60;21.50
30520;DHT22;17300;50.374;8.006;2024-03-25T14:36:20;37.80;21.50
30520;DHT22;17300;50.374;8.006;2024-03-25T14:38:46;37.90;21.40
30520;DHT22;17300;50.374;8.006;2024-03-25T14:41:19;38.00;21.30
30520;DHT22;17300;50.374;8.006;2024-03-25T14:43:45;38.10;20.80
30520;DHT22;17300;50.374;8.006;2024-03-25T14:46:11;38.10;21.00
30520;DHT22;17300;50.374;8.006;2024-03-25T14:48:37;38.20;20.90
30520;DHT22;17300;50.374;8.006;2024-03-25T14:51:03;38.30;20.80
30520;DHT22;17300;50.374;8.006;2024-03-25T14:53:29;38.30;20.60
30520;DHT22;17300;50.374;8.006;2024-03-25T14:55:55;38.40;20.50
30520;DHT22;17300;50.374;8.006;2024-03-25T14:58:22;38.50;20.50
30520;DHT22;17300;50.374;8.006;2024-03-25T15:00:48;38.50;20.40
30520;DHT22;17300;50.374;8.006;2024-03-25T15:03:13;38.60;20.30
30520;DHT22;17300;50.374;8.006;2024-03-25T15:05:39;38.60;20.20
30520;DHT22;17300;50.374;8.006;2024-03-25T15:08:06;38.60;20.10
30520;DHT22;17300;50.374;8.006;2024-03-25T15:10:33;38.70;20.10
30520;DHT22;17300;50.374;8.006;2024-03-25T15:12:59;38.60;19.90
30520;DHT22;17300;50.374;8.006;2024-03-25T15:15:26;38.60;20.00
30520;DHT22;17300;50.374;8.006;2024-03-25T15:17:52;38.50;19.80
30520;DHT22;17300;50.374;8.006;2024-03-25T15:20:18;38.40;19.60
30520;DHT22;17300;50.374;8.006;2024-03-25T15:22:44;38.30;19.50
30520;DHT22;17300;50.374;8.006;2024-03-25T15:25:10;38.30;19.50